Flight Track Log - Related Links

Times and Time Zones

All times are in EDT time to prevent confusion due to time zone crossing. See the CPZ5841 flight status page for this flight to view local times or setup timezone preferences in your user account.

Time Position Orientation Groundspeed Altitude Reporting Facility
EDT Latitude Longitude Course Direction KTS MPH feet Rate Location/Type
Sat 12:11:00 AM 44.9167 -93.2667 290° West 179 206 2,800  Level Minneapolis TRACON
Sat 12:11:15 AM 44.9231 -93.2894 292° West 198 228 3,300 2,684 Climbing Minneapolis Center
Sat 12:12:16 AM 44.9611 -93.3722 303° West 256 295 6,200 3,223 Climbing Minneapolis Center
Sat 12:13:16 AM 44.9864 -93.4719 290° West 273 314 9,800 2,579 Climbing Minneapolis Center
Sat 12:14:00 AM 45.0613 -93.8004 295° West  Level FlightAware Approximate
Sat 12:14:17 AM 45.0089 -93.5592 290° West 299 344 11,400  Level Minneapolis Center
Sat 12:15:00 AM 45.0942 -93.9208 286° West  Level FlightAware Approximate
Sat 12:15:17 AM 45.0475 -93.7114 290° West 344 396 14,600  Level Minneapolis Center
Sat 12:16:00 AM 45.1251 -94.0503 290° West  Level FlightAware Approximate
Sat 12:16:18 AM 45.0808 -93.8447 290° West 363 418 17,000  Level Minneapolis Center
Sat 12:17:19 AM 45.1144 -93.9800 289° West 365 420 19,600 2,380 Climbing Minneapolis Center
Sat 12:18:19 AM 45.1475 -94.1197 289° West 373 429 21,800 2,033 Climbing Minneapolis Center
Sat 12:19:20 AM 45.1828 -94.2644 289° West 387 445 23,700 1,785 Climbing Minneapolis Center
Sat 12:20:20 AM 45.2183 -94.4131 289° West 399 459 25,400 1,587 Climbing Minneapolis Center
Sat 12:21:21 AM 45.2542 -94.5653 289° West 406 467 26,900 1,475 Climbing Minneapolis Center
Sat 12:22:22 AM 45.2953 -94.7375 289° West 419 482 28,400 1,438 Climbing Minneapolis Center
Sat 12:23:22 AM 45.3331 -94.8961 289° West 424 488 29,800 1,438 Climbing Minneapolis Center
Sat 12:24:23 AM 45.3692 -95.0553 288° West 426 490 31,300 1,091 Climbing Minneapolis Center
Sat 12:25:23 AM 45.4056 -95.2136 288° West 423 487 32,000 347 Climbing Minneapolis Center
Sat 12:26:24 AM 45.4442 -95.3786 288° West 434 499 32,000  Level Minneapolis Center
Sat 12:27:25 AM 45.4825 -95.5467 288° West 444 511 32,000  Level Minneapolis Center
Sat 12:28:25 AM 45.5203 -95.7133 288° West 445 512 32,000  Level Minneapolis Center
Sat 12:29:26 AM 45.5592 -95.8825 288° West 448 516 32,000  Level Minneapolis Center
Sat 12:30:26 AM 45.5953 -96.0494 287° West 443 510 32,000  Level Minneapolis Center
Sat 12:31:27 AM 45.6406 -96.2494 288° West 442 509 32,000  Level Minneapolis Center
Sat 12:32:27 AM 45.6772 -96.4181 287° West 444 511 32,000  Level Minneapolis Center
Sat 12:33:28 AM 45.7133 -96.5850 287° West 442 509 32,000  Level Minneapolis Center
Sat 12:34:28 AM 45.7500 -96.7519 288° West 442 509 32,000  Level Minneapolis Center
Sat 12:35:29 AM 45.7856 -96.9186 287° West 440 506 32,000  Level Minneapolis Center
Sat 12:36:29 AM 45.8197 -97.0867 286° West 441 507 32,000  Level Minneapolis Center
Sat 12:37:30 AM 45.8558 -97.2536 287° West 441 507 32,000  Level Minneapolis Center
Sat 12:38:30 AM 45.8922 -97.4211 287° West 446 513 32,000  Level Minneapolis Center
Sat 12:39:30 AM 45.9283 -97.5897 287° West 444 511 32,000  Level Minneapolis Center
Sat 12:40:31 AM 45.9750 -97.7514 293° West 439 505 32,000  Level Minneapolis Center
Sat 12:41:31 AM 46.0208 -97.9128 292° West 437 503 32,000  Level Minneapolis Center
Sat 12:42:32 AM 46.0656 -98.0753 292° West 437 503 32,000 -397 Level Minneapolis Center
Sat 12:43:32 AM 46.1100 -98.2339 292° West 432 497 31,200 -1,190 Descending Minneapolis Center
Sat 12:44:33 AM 46.1544 -98.3939 292° West 430 495 29,600 -1,736 Descending Minneapolis Center
Sat 12:45:33 AM 46.1986 -98.5525 292° West 428 493 27,700 -1,900 Descending Minneapolis Center
Sat 12:46:33 AM 46.2411 -98.7100 291° West 424 488 25,800 -1,686 Descending Minneapolis Center
Sat 12:47:34 AM 46.2750 -98.8325 292° West 419 482 24,300 -1,884 Descending Minneapolis Center
Sat 12:48:34 AM 46.3239 -99.0139 291° West 409 471 22,000 -2,083 Descending Minneapolis Center
Sat 12:49:35 AM 46.3625 -99.1581 291° West 397 457 20,100 -1,884 Descending Minneapolis Center
Sat 12:50:35 AM 46.4011 -99.3014 291° West 388 447 18,200 -1,750 Descending Minneapolis Center
Sat 12:51:35 AM 46.4419 -99.4578 291° West 374 430 16,600 -1,587 Descending Minneapolis Center
Sat 12:52:36 AM 46.4747 -99.5939 289° West 365 420 15,000 -1,587 Descending Minneapolis Center
Sat 12:53:36 AM 46.4947 -99.7250 283° West 345 397 13,400 -1,537 Descending Minneapolis Center
Sat 12:54:37 AM 46.5131 -99.8439 283° West 318 366 11,900 -1,438 Descending Minneapolis Center
Sat 12:55:37 AM 46.5289 -99.9475 283° West 284 327 10,500 -1,400 Descending Minneapolis Center
Sat 12:56:37 AM 46.5444 -100.0525 282° West 272 313 9,100 -1,289 Descending Minneapolis Center
Sat 12:57:38 AM 46.5606 -100.1553 283° West 265 305 7,900 -1,041 Descending Minneapolis Center
Sat 12:58:38 AM 46.5747 -100.2478 283° West 248 285 7,000 -900 Descending Minneapolis Center
Sat 12:59:38 AM 46.5867 -100.3303 282° West 223 257 6,100 -893 Descending Minneapolis Center
Sat 01:00:39 AM 46.5992 -100.4136 282° West 214 246 5,200 -893 Descending Minneapolis Center
Sat 01:01:39 AM 46.6117 -100.4964 282° West 211 243 4,300 -750 Descending Minneapolis Center
Sat 01:02:39 AM 46.6378 -100.5664 299° West 209 241 3,700 -300 Descending Minneapolis Center
Sat 01:03:39 AM 46.6722 -100.6119 318° Northwest 196 226 3,700  Level Minneapolis Center
Sat 01:04:40 AM 46.7183 -100.6717 318° Northwest 193 222 3,700  Level Minneapolis Center

Login

Don't have an account? Register now (free) for customized features, flight alerts, and more!